createdAt,value
2022-08-05T00:01:28.603Z,24.31
2022-08-05T00:03:56.993Z,24.34
2022-08-05T00:06:32.416Z,24.48
2022-08-05T00:09:00.422Z,24.51
2022-08-05T00:11:30.187Z,24.65
2022-08-05T00:13:57.054Z,25.05
2022-08-05T00:16:36.199Z,25.09
2022-08-05T00:19:09.662Z,24.97
2022-08-05T00:21:36.204Z,24.95
2022-08-05T00:24:10.561Z,24.93
2022-08-05T00:26:37.863Z,24.90
2022-08-05T00:29:04.288Z,25.04
2022-08-05T00:31:53.719Z,25.13
2022-08-05T00:34:56.128Z,25.19
2022-08-05T00:37:10.308Z,25.24
2022-08-05T00:39:44.003Z,25.31
2022-08-05T00:42:11.015Z,25.47
2022-08-05T00:44:57.450Z,25.51
2022-08-05T00:47:24.064Z,25.46
2022-08-05T00:49:51.752Z,25.53
2022-08-05T00:52:18.800Z,25.62
2022-08-05T00:54:54.970Z,25.65
2022-08-05T00:57:22.689Z,25.78
2022-08-05T00:59:51.977Z,25.70
2022-08-05T01:02:18.354Z,25.74
2022-08-05T01:04:44.713Z,25.74
2022-08-05T01:07:17.880Z,25.63
2022-08-05T01:09:44.569Z,25.57
2022-08-05T01:12:18.768Z,25.52
2022-08-05T01:14:48.777Z,25.48
2022-08-05T01:17:39.954Z,25.47
2022-08-05T01:20:13.506Z,25.37
2022-08-05T01:22:51.950Z,25.30
2022-08-05T01:25:40.199Z,25.16
2022-08-05T01:28:16.794Z,25.09
2022-08-05T01:30:53.583Z,24.91
2022-08-05T01:33:25.191Z,24.88
2022-08-05T01:35:53.783Z,24.64
2022-08-05T01:38:27.546Z,24.61
2022-08-05T01:40:58.639Z,24.55
2022-08-05T01:43:26.708Z,24.39
2022-08-05T01:45:56.318Z,24.32
2022-08-05T01:48:23.814Z,24.22
2022-08-05T01:50:51.495Z,24.19
2022-08-05T01:53:55.201Z,24.02
2022-08-05T01:56:09.233Z,23.98
2022-08-05T01:58:40.920Z,24.07
2022-08-05T02:01:13.266Z,23.98
2022-08-05T02:03:43.777Z,24.13
2022-08-05T02:06:24.041Z,24.18
2022-08-05T02:08:58.945Z,24.30
2022-08-05T02:11:33.178Z,24.42
2022-08-05T02:14:12.466Z,24.57
2022-08-05T02:16:44.066Z,24.71
2022-08-05T02:19:24.340Z,24.79
2022-08-05T02:22:17.515Z,24.90
2022-08-05T02:24:53.849Z,24.80
2022-08-05T02:27:30.206Z,24.71
2022-08-05T02:30:10.333Z,24.53
2022-08-05T02:32:38.158Z,24.54
2022-08-05T02:35:14.073Z,24.54
2022-08-05T02:37:41.594Z,24.45
2022-08-05T02:40:09.528Z,24.41
2022-08-05T02:42:37.636Z,24.37
2022-08-05T02:45:04.277Z,24.52
2022-08-05T02:47:58.499Z,24.41
2022-08-05T02:50:18.701Z,24.45
2022-08-05T02:52:45.693Z,24.46
2022-08-05T02:55:12.971Z,24.44
2022-08-05T02:58:09.763Z,24.35
2022-08-05T03:00:27.116Z,24.32
2022-08-05T03:02:53.679Z,24.26
2022-08-05T03:05:21.718Z,24.03
2022-08-05T03:08:09.495Z,23.94
2022-08-05T03:10:36.042Z,23.81
2022-08-05T03:15:27.872Z,23.70
2022-08-05T03:17:55.768Z,23.70
2022-08-05T03:20:22.532Z,23.59
2022-08-05T03:22:50.738Z,23.43
2022-08-05T03:25:33.700Z,23.41
2022-08-05T03:28:06.876Z,23.28
2022-08-05T03:30:34.975Z,23.18
2022-08-05T03:33:01.839Z,23.12
2022-08-05T03:35:28.453Z,23.18
2022-08-05T03:37:58.603Z,22.98
2022-08-05T03:40:31.928Z,22.94
2022-08-05T03:42:59.291Z,22.96
2022-08-05T03:45:28.967Z,22.86
2022-08-05T03:47:57.153Z,22.88
2022-08-05T03:50:25.838Z,22.89
2022-08-05T03:55:53.224Z,22.89
2022-08-05T03:56:09.657Z,22.83
2022-08-05T03:58:37.828Z,22.84
2022-08-05T04:01:11.078Z,22.80
2022-08-05T04:03:39.521Z,22.85
2022-08-05T04:06:06.333Z,22.79
2022-08-05T04:08:36.708Z,22.80
2022-08-05T04:11:04.030Z,22.92
2022-08-05T04:13:51.113Z,22.82
2022-08-05T04:16:24.295Z,22.88
2022-08-05T04:18:54.427Z,22.90
2022-08-05T04:22:05.687Z,22.93
2022-08-05T04:24:08.871Z,23.01
2022-08-05T04:26:35.669Z,23.23
2022-08-05T04:29:07.457Z,23.45
2022-08-05T04:31:38.774Z,23.50
2022-08-05T04:34:31.756Z,23.59
2022-08-05T04:36:52.229Z,23.66
2022-08-05T04:39:19.009Z,23.66
2022-08-05T04:41:45.812Z,23.82
2022-08-05T04:44:14.464Z,24.04
2022-08-05T04:46:47.323Z,24.16
2022-08-05T04:49:15.050Z,24.16
2022-08-05T04:51:42.424Z,24.17
2022-08-05T04:54:09.832Z,24.24
2022-08-05T04:56:36.958Z,24.23
2022-08-05T04:59:21.924Z,24.25
2022-08-05T05:02:36.201Z,24.21
2022-08-05T05:04:38.239Z,24.33
2022-08-05T05:07:09.551Z,24.51
2022-08-05T05:09:37.264Z,24.56
2022-08-05T05:12:04.549Z,24.73
2022-08-05T05:14:32.564Z,24.77
2022-08-05T05:17:01.942Z,24.93
2022-08-05T05:19:37.202Z,25.05
2022-08-05T05:22:23.446Z,25.23
2022-08-05T05:24:57.392Z,25.47
2022-08-05T05:27:45.250Z,25.72
2022-08-05T05:30:15.560Z,25.74
2022-08-05T05:32:56.509Z,25.76
2022-08-05T05:35:23.030Z,25.82
2022-08-05T05:37:59.611Z,25.96
2022-08-05T05:40:28.401Z,26.10
2022-08-05T05:42:55.204Z,26.20
2022-08-05T05:45:23.364Z,26.50
2022-08-05T05:48:07.167Z,26.64
2022-08-05T05:50:42.561Z,26.69
2022-08-05T05:53:21.385Z,26.83
2022-08-05T05:55:52.060Z,26.91
2022-08-05T05:58:31.681Z,26.91
2022-08-05T06:01:12.283Z,27.06
2022-08-05T06:04:00.584Z,27.30
2022-08-05T06:06:28.228Z,27.37
2022-08-05T06:08:57.776Z,27.64
2022-08-05T06:11:24.105Z,27.57
2022-08-05T06:13:53.970Z,27.72
2022-08-05T06:16:30.696Z,27.79
2022-08-05T06:19:00.906Z,27.77
2022-08-05T06:21:37.183Z,27.94
2022-08-05T06:24:05.862Z,28.25
2022-08-05T06:26:33.844Z,28.25
2022-08-05T06:29:03.692Z,28.27
2022-08-05T06:31:33.592Z,28.40
2022-08-05T06:34:07.487Z,28.45
2022-08-05T06:36:53.594Z,28.22
2022-08-05T06:39:22.014Z,28.67
2022-08-05T06:41:53.741Z,28.64
2022-08-05T06:44:22.146Z,28.65
2022-08-05T06:46:50.824Z,28.72
2022-08-05T06:49:17.632Z,28.81
2022-08-05T06:51:45.603Z,28.86
2022-08-05T06:54:18.065Z,29.03
2022-08-05T06:56:54.950Z,29.45
2022-08-05T06:59:38.533Z,29.05
2022-08-05T07:02:05.023Z,28.09
2022-08-05T07:04:31.350Z,27.77
2022-08-05T07:06:59.406Z,27.86
2022-08-05T07:09:25.747Z,27.96
2022-08-05T07:12:00.673Z,28.48
2022-08-05T07:15:05.456Z,28.55
2022-08-05T07:18:00.089Z,28.84
2022-08-05T07:20:38.943Z,28.41
2022-08-05T07:23:06.535Z,28.23
2022-08-05T07:25:55.053Z,28.28
2022-08-05T07:28:19.249Z,28.06
2022-08-05T07:30:50.352Z,28.05
2022-08-05T07:33:21.480Z,28.00
2022-08-05T07:36:20.900Z,28.09
2022-08-05T07:38:49.059Z,28.12
2022-08-05T07:42:09.177Z,28.91
2022-08-05T07:44:05.040Z,28.52
2022-08-05T07:46:33.671Z,28.41
2022-08-05T07:49:05.485Z,28.50
2022-08-05T07:51:36.434Z,28.67
2022-08-05T07:54:04.597Z,28.68
2022-08-05T07:56:39.320Z,29.05
2022-08-05T07:59:17.765Z,29.08
2022-08-05T08:01:52.412Z,28.26
2022-08-05T08:04:37.450Z,27.91
2022-08-05T08:07:07.253Z,27.75
2022-08-05T08:09:34.032Z,27.55
2022-08-05T08:12:09.084Z,27.17
2022-08-05T08:14:41.603Z,26.91
2022-08-05T08:17:15.955Z,26.73
2022-08-05T08:20:21.242Z,26.60
2022-08-05T08:22:29.459Z,26.56
2022-08-05T08:24:55.864Z,26.86
2022-08-05T08:27:35.798Z,27.10
2022-08-05T08:30:30.111Z,27.09
2022-08-05T08:32:58.132Z,27.34
2022-08-05T08:35:29.269Z,27.38
2022-08-05T08:38:01.886Z,27.32
2022-08-05T08:40:28.772Z,27.58
2022-08-05T08:42:55.495Z,27.51
2022-08-05T08:45:27.194Z,27.55
2022-08-05T08:48:07.436Z,27.45
2022-08-05T08:51:22.390Z,27.45
2022-08-05T08:53:27.988Z,27.48
2022-08-05T08:56:04.146Z,27.60
2022-08-05T08:58:43.949Z,27.46
2022-08-05T09:01:15.746Z,27.48
2022-08-05T09:03:45.741Z,27.94
2022-08-05T09:06:15.675Z,27.80
2022-08-05T09:08:44.872Z,27.96
2022-08-05T09:11:13.828Z,28.71
2022-08-05T09:14:10.257Z,28.58
2022-08-05T09:16:27.788Z,28.77
2022-08-05T09:18:55.354Z,28.88
2022-08-05T09:22:18.355Z,28.92
2022-08-05T09:24:13.118Z,28.61
2022-08-05T09:26:43.750Z,28.74
2022-08-05T09:29:10.629Z,29.70
2022-08-05T09:32:45.857Z,29.24
2022-08-05T09:34:47.717Z,29.60
2022-08-05T09:37:18.182Z,29.54
2022-08-05T09:40:04.856Z,29.00
2022-08-05T09:42:38.953Z,29.28
2022-08-05T09:46:04.611Z,29.23
2022-08-05T09:47:57.412Z,29.40
2022-08-05T09:50:38.488Z,29.28
2022-08-05T09:53:14.183Z,29.27
2022-08-05T09:55:56.262Z,29.53
2022-08-05T09:58:26.329Z,29.50
2022-08-05T10:01:13.581Z,29.53
2022-08-05T10:03:58.957Z,30.16
2022-08-05T10:06:26.470Z,29.68
2022-08-05T10:08:55.657Z,29.28
2022-08-05T10:11:22.839Z,29.67
2022-08-05T10:13:49.549Z,29.62
2022-08-05T10:16:29.016Z,29.56
2022-08-05T10:18:56.487Z,29.76
2022-08-05T10:21:23.600Z,29.64
2022-08-05T10:23:59.786Z,29.94
2022-08-05T10:26:31.591Z,29.98
2022-08-05T10:28:59.313Z,29.90
2022-08-05T10:32:54.223Z,29.61
2022-08-05T10:34:12.158Z,29.80
2022-08-05T10:36:40.818Z,29.72
2022-08-05T10:39:10.321Z,29.58
2022-08-05T10:41:51.447Z,30.26
2022-08-05T10:44:20.112Z,29.99
2022-08-05T10:46:51.014Z,29.74
2022-08-05T10:49:27.031Z,29.88
2022-08-05T10:52:02.478Z,29.78
2022-08-05T10:54:46.892Z,29.71
2022-08-05T10:57:25.033Z,30.16
2022-08-05T11:00:19.648Z,30.24
2022-08-05T11:02:58.825Z,30.48
2022-08-05T11:06:03.790Z,31.03
2022-08-05T11:08:39.204Z,30.84
2022-08-05T11:11:24.395Z,30.63
2022-08-05T11:14:00.427Z,30.78
2022-08-05T11:16:47.962Z,30.51
2022-08-05T11:20:10.048Z,30.53
2022-08-05T11:22:32.503Z,30.92
2022-08-05T11:26:04.742Z,30.57
2022-08-05T11:28:17.064Z,30.93
2022-08-05T11:30:56.050Z,30.70
2022-08-05T11:33:43.935Z,30.57
2022-08-05T11:36:16.162Z,31.24
2022-08-05T11:39:01.323Z,31.56
2022-08-05T11:41:58.004Z,31.52
2022-08-05T11:44:21.772Z,31.79
2022-08-05T11:47:11.116Z,32.13
2022-08-05T11:49:43.041Z,31.78
2022-08-05T11:52:11.364Z,31.70
2022-08-05T11:54:40.613Z,31.32
2022-08-05T11:57:24.772Z,30.83
2022-08-05T11:59:52.144Z,30.35
2022-08-05T12:02:30.542Z,30.84
2022-08-05T12:05:00.080Z,31.11
2022-08-05T12:08:08.520Z,30.86
2022-08-05T12:10:13.860Z,31.47
2022-08-05T12:12:40.187Z,31.26
2022-08-05T12:15:35.929Z,31.34
2022-08-05T12:18:10.613Z,31.77
2022-08-05T12:20:38.788Z,32.49
2022-08-05T12:23:12.015Z,32.50
2022-08-05T12:25:48.853Z,32.02
2022-08-05T12:28:29.607Z,32.90
2022-08-05T12:30:57.884Z,32.19
2022-08-05T12:33:36.237Z,32.02
2022-08-05T12:36:03.775Z,32.13
2022-08-05T12:38:36.151Z,32.29
2022-08-05T12:41:03.238Z,32.47
2022-08-05T12:43:32.138Z,32.32
2022-08-05T12:45:58.814Z,32.92
2022-08-05T12:48:32.357Z,32.64
2022-08-05T12:52:11.158Z,32.46
2022-08-05T12:54:00.868Z,32.69
2022-08-05T12:56:34.948Z,33.02
2022-08-05T12:59:21.036Z,33.21
2022-08-05T13:02:06.936Z,32.75
2022-08-05T13:04:35.143Z,32.32
2022-08-05T13:07:47.516Z,32.25
2022-08-05T13:09:59.253Z,31.74
2022-08-05T13:12:28.554Z,31.91
2022-08-05T13:15:07.468Z,31.89
2022-08-05T13:17:41.674Z,31.82
2022-08-05T13:20:19.171Z,32.13
2022-08-05T13:22:49.298Z,32.29
2022-08-05T13:25:19.026Z,32.37
2022-08-05T13:27:50.495Z,32.10
2022-08-05T13:30:33.835Z,32.16
2022-08-05T13:33:02.321Z,32.33
2022-08-05T13:35:31.504Z,32.29
2022-08-05T13:38:13.376Z,32.95
2022-08-05T13:40:51.678Z,32.52
2022-08-05T13:43:22.085Z,31.66
2022-08-05T13:45:48.763Z,31.76
2022-08-05T13:49:00.351Z,31.81
2022-08-05T13:51:07.587Z,31.77
2022-08-05T13:53:47.938Z,31.55
2022-08-05T13:56:18.865Z,31.49
2022-08-05T13:58:52.843Z,31.99
2022-08-05T14:01:21.288Z,31.72
2022-08-05T14:04:12.509Z,31.92
2022-08-05T14:06:39.397Z,32.13
2022-08-05T14:09:14.566Z,32.17
2022-08-05T14:12:00.409Z,31.82
2022-08-05T14:14:33.530Z,31.94
2022-08-05T14:17:00.376Z,32.05
2022-08-05T14:19:27.219Z,31.88
2022-08-05T14:22:09.941Z,31.77
2022-08-05T14:24:40.158Z,31.71
2022-08-05T14:27:17.599Z,31.54
2022-08-05T14:29:44.937Z,31.65
2022-08-05T14:32:27.412Z,31.77
2022-08-05T14:34:54.735Z,32.05
2022-08-05T14:37:24.194Z,31.78
2022-08-05T14:40:10.720Z,31.64
2022-08-05T14:42:41.342Z,31.72
2022-08-05T14:45:09.226Z,31.81
2022-08-05T14:48:02.947Z,31.65
2022-08-05T14:50:22.249Z,31.72
2022-08-05T14:52:57.023Z,32.04
2022-08-05T14:55:38.407Z,32.02
2022-08-05T14:58:11.307Z,31.83
2022-08-05T15:00:39.269Z,31.81
2022-08-05T15:03:25.495Z,32.05
2022-08-05T15:06:07.591Z,31.76
2022-08-05T15:09:01.404Z,31.71
2022-08-05T15:11:24.548Z,31.70
2022-08-05T15:14:10.842Z,31.77
2022-08-05T15:16:46.732Z,31.65
2022-08-05T15:19:23.202Z,31.77
2022-08-05T15:21:50.005Z,31.72
2022-08-05T15:24:16.716Z,31.68
2022-08-05T15:26:45.259Z,31.80
2022-08-05T15:29:15.550Z,31.58
2022-08-05T15:31:41.871Z,31.66
2022-08-05T15:34:31.694Z,31.71
2022-08-05T15:36:54.587Z,31.52
2022-08-05T15:41:00.647Z,31.43
2022-08-05T15:42:54.484Z,31.39
2022-08-05T15:44:54.905Z,31.45
2022-08-05T15:47:22.406Z,31.59
2022-08-05T15:49:56.682Z,31.79
2022-08-05T15:52:51.633Z,31.74
2022-08-05T15:55:16.255Z,31.61
2022-08-05T15:57:43.280Z,31.47
2022-08-05T16:00:11.817Z,31.36
2022-08-05T16:02:38.288Z,31.36
2022-08-05T16:05:05.197Z,31.38
2022-08-05T16:07:32.382Z,31.56
2022-08-05T16:09:58.817Z,31.65
2022-08-05T16:12:25.468Z,31.70
2022-08-05T16:14:52.107Z,31.64
2022-08-05T16:17:18.569Z,31.60
2022-08-05T16:20:04.905Z,31.40
2022-08-05T16:22:34.246Z,31.31
2022-08-05T16:25:09.400Z,31.13
2022-08-05T16:28:00.925Z,30.92
2022-08-05T16:30:26.730Z,30.91
2022-08-05T16:32:55.373Z,30.77
2022-08-05T16:35:28.677Z,30.71
2022-08-05T16:38:14.910Z,30.67
2022-08-05T16:40:51.926Z,30.54
2022-08-05T16:43:25.414Z,30.43
2022-08-05T16:46:04.781Z,30.42
2022-08-05T16:48:35.333Z,30.40
2022-08-05T16:51:02.227Z,30.47
2022-08-05T16:54:03.030Z,30.55
2022-08-05T16:56:21.820Z,30.56
2022-08-05T16:58:49.752Z,30.48
2022-08-05T17:01:16.228Z,30.53
2022-08-05T17:03:45.472Z,30.71
2022-08-05T17:06:11.940Z,30.76
2022-08-05T17:08:52.242Z,30.74
2022-08-05T17:11:20.509Z,30.59
2022-08-05T17:13:50.529Z,30.35
2022-08-05T17:16:32.913Z,30.32
2022-08-05T17:19:00.184Z,30.27
2022-08-05T17:21:35.816Z,30.40
2022-08-05T17:24:28.008Z,30.42
2022-08-05T17:26:49.481Z,30.59
2022-08-05T17:29:17.154Z,30.62
2022-08-05T17:31:58.455Z,30.38
2022-08-05T17:34:32.113Z,30.07
2022-08-05T17:36:59.331Z,29.74
2022-08-05T17:39:33.352Z,29.58
2022-08-05T17:42:28.441Z,29.49
2022-08-05T17:44:51.248Z,29.54
2022-08-05T17:47:22.590Z,29.39
2022-08-05T17:50:04.005Z,29.39
2022-08-05T17:52:52.607Z,29.30
2022-08-05T17:55:21.428Z,29.26
2022-08-05T17:57:48.660Z,29.34
2022-08-05T18:00:16.863Z,29.38
2022-08-05T18:02:43.231Z,29.03
2022-08-05T18:05:09.821Z,28.91
2022-08-05T18:07:41.536Z,28.87
2022-08-05T18:10:10.922Z,28.67
2022-08-05T18:12:37.695Z,28.49
2022-08-05T18:15:08.770Z,28.53
2022-08-05T18:17:59.600Z,28.28
2022-08-05T18:20:29.238Z,28.22
2022-08-05T18:23:00.595Z,28.09
2022-08-05T18:25:36.128Z,27.94
2022-08-05T18:28:04.732Z,27.76
2022-08-05T18:30:33.174Z,27.05
2022-08-05T18:33:00.359Z,26.56
2022-08-05T18:35:28.269Z,26.38
2022-08-05T18:38:16.561Z,26.18
2022-08-05T18:41:57.468Z,25.90
2022-08-05T18:43:38.103Z,25.75
2022-08-05T18:46:09.588Z,25.63
2022-08-05T18:48:41.796Z,25.42
2022-08-05T18:52:06.092Z,25.24
2022-08-05T18:54:14.340Z,25.07
2022-08-05T18:56:51.255Z,24.90
2022-08-05T18:59:44.470Z,24.83
2022-08-05T19:02:26.427Z,24.53
2022-08-05T19:05:03.188Z,24.37
2022-08-05T19:07:46.186Z,24.13
2022-08-05T19:10:13.864Z,23.89
2022-08-05T19:12:40.343Z,23.72
2022-08-05T19:15:25.349Z,23.64
2022-08-05T19:18:08.094Z,23.59
2022-08-05T19:20:36.426Z,23.45
2022-08-05T19:23:03.059Z,23.30
2022-08-05T19:25:39.203Z,23.36
2022-08-05T19:28:10.217Z,23.22
2022-08-05T19:30:36.499Z,23.15
2022-08-05T19:33:05.201Z,23.03
2022-08-05T19:35:56.302Z,22.92
2022-08-05T19:38:24.546Z,22.78
2022-08-05T19:40:53.100Z,22.82
2022-08-05T19:43:31.228Z,22.90
2022-08-05T19:46:06.095Z,23.00
2022-08-05T19:48:43.328Z,23.11
2022-08-05T19:52:05.794Z,22.75
2022-08-05T19:54:03.538Z,22.54
2022-08-05T19:56:34.524Z,22.40
2022-08-05T19:59:53.803Z,22.24
2022-08-05T20:01:47.673Z,22.22
2022-08-05T20:04:14.015Z,22.18
2022-08-05T20:06:46.455Z,22.21
2022-08-05T20:09:14.215Z,22.22
2022-08-05T20:11:40.735Z,22.25
2022-08-05T20:14:26.778Z,22.02
2022-08-05T20:16:53.781Z,22.04
2022-08-05T20:19:21.221Z,21.96
2022-08-05T20:21:49.359Z,21.80
2022-08-05T20:24:16.283Z,21.86
2022-08-05T20:26:42.713Z,21.81
2022-08-05T20:29:26.728Z,21.72
2022-08-05T20:31:58.006Z,21.63
2022-08-05T20:34:24.725Z,21.51
2022-08-05T20:36:51.161Z,21.36
2022-08-05T20:39:18.026Z,21.32
2022-08-05T20:41:47.983Z,21.21
2022-08-05T20:44:19.257Z,21.07
2022-08-05T20:46:58.195Z,21.06
2022-08-05T20:49:26.073Z,20.94
2022-08-05T20:51:53.471Z,20.80
2022-08-05T20:54:20.217Z,20.78
2022-08-05T20:56:46.568Z,20.73
2022-08-05T20:59:26.772Z,20.72
2022-08-05T21:01:57.181Z,20.75
2022-08-05T21:04:23.653Z,20.59
2022-08-05T21:06:53.829Z,20.49
2022-08-05T21:09:20.176Z,20.55
2022-08-05T21:12:08.890Z,20.49
2022-08-05T21:14:35.053Z,20.27
2022-08-05T21:17:03.128Z,20.26
2022-08-05T21:19:47.629Z,20.31
2022-08-05T21:22:23.182Z,20.33
2022-08-05T21:24:51.803Z,20.29
2022-08-05T21:27:18.393Z,20.26
2022-08-05T21:29:48.442Z,20.08
2022-08-05T21:32:20.055Z,19.91
2022-08-05T21:34:52.478Z,19.94
2022-08-05T21:37:33.182Z,19.97
2022-08-05T21:40:02.898Z,19.94
2022-08-05T21:42:44.491Z,19.81
2022-08-05T21:45:11.408Z,19.77
2022-08-05T21:47:56.572Z,19.69
2022-08-05T21:50:25.080Z,19.76
2022-08-05T21:52:51.488Z,19.62
2022-08-05T21:55:42.891Z,19.60
2022-08-05T21:58:05.821Z,19.53
2022-08-05T22:00:32.445Z,19.65
2022-08-05T22:03:00.072Z,19.51
2022-08-05T22:05:27.379Z,19.46
2022-08-05T22:07:58.824Z,19.30
2022-08-05T22:10:28.374Z,19.29
2022-08-05T22:12:57.133Z,19.29
2022-08-05T22:16:01.748Z,19.24
2022-08-05T22:18:11.051Z,19.14
2022-08-05T22:20:39.078Z,19.03
2022-08-05T22:23:25.093Z,19.02
2022-08-05T22:26:30.124Z,18.85
2022-08-05T22:28:56.477Z,18.81
2022-08-05T22:31:22.860Z,18.82
2022-08-05T22:33:57.195Z,18.82
2022-08-05T22:36:27.177Z,18.73
2022-08-05T22:38:53.692Z,18.53
2022-08-05T22:42:04.471Z,18.44
2022-08-05T22:44:08.723Z,18.29
2022-08-05T22:46:40.131Z,18.18
2022-08-05T22:49:12.166Z,18.15
2022-08-05T22:52:05.806Z,18.10
2022-08-05T22:54:35.475Z,18.19
2022-08-05T22:57:02.849Z,18.26
2022-08-05T22:59:44.157Z,18.25
2022-08-05T23:02:16.860Z,18.18
2022-08-05T23:04:43.890Z,18.11
2022-08-05T23:07:18.829Z,18.07
2022-08-05T23:09:57.826Z,17.85
2022-08-05T23:12:32.987Z,17.36
2022-08-05T23:14:59.770Z,16.86
2022-08-05T23:17:34.143Z,16.73
2022-08-05T23:20:05.253Z,16.59
2022-08-05T23:22:31.850Z,16.46
2022-08-05T23:24:59.737Z,16.32
2022-08-05T23:27:31.343Z,16.23
2022-08-05T23:30:10.655Z,16.08
2022-08-05T23:32:37.735Z,16.02
2022-08-05T23:35:11.642Z,15.99
2022-08-05T23:37:38.029Z,16.04
2022-08-05T23:40:07.883Z,15.93
2022-08-05T23:42:37.840Z,15.97
2022-08-05T23:45:04.727Z,15.99
2022-08-05T23:47:48.004Z,15.94
2022-08-05T23:50:15.024Z,15.83
2022-08-05T23:52:49.896Z,15.77
2022-08-05T23:55:17.681Z,15.70
2022-08-05T23:57:44.010Z,15.74
